createdAt,value
2019-02-05T00:01:56.972Z,6.10
2019-02-05T00:04:25.855Z,7.12
2019-02-05T00:06:54.722Z,8.23
2019-02-05T00:09:23.511Z,8.77
2019-02-05T00:11:52.454Z,7.60
2019-02-05T00:14:21.752Z,6.83
2019-02-05T00:16:50.697Z,7.25
2019-02-05T00:19:19.509Z,8.68
2019-02-05T00:21:48.448Z,8.90
2019-02-05T00:24:17.267Z,9.10
2019-02-05T00:26:46.117Z,8.43
2019-02-05T00:29:15.323Z,6.77
2019-02-05T00:31:44.109Z,9.40
2019-02-05T00:34:12.990Z,6.93
2019-02-05T00:36:41.803Z,7.70
2019-02-05T00:39:11.697Z,7.17
2019-02-05T00:41:40.569Z,8.03
2019-02-05T00:44:09.344Z,8.63
2019-02-05T00:46:38.290Z,8.13
2019-02-05T00:49:07.160Z,6.53
2019-02-05T00:51:36.077Z,7.93
2019-02-05T00:54:05.608Z,8.10
2019-02-05T00:56:34.414Z,9.20
2019-02-05T00:59:03.193Z,7.63
2019-02-05T01:01:32.146Z,7.33
2019-02-05T01:04:00.918Z,7.30
2019-02-05T01:06:29.786Z,8.55
2019-02-05T01:08:58.647Z,7.70
2019-02-05T01:11:27.521Z,8.57
2019-02-05T01:13:56.314Z,8.63
2019-02-05T01:16:25.343Z,8.27
2019-02-05T01:18:54.152Z,8.20
2019-02-05T01:21:23.023Z,8.60
2019-02-05T01:23:51.806Z,7.63
2019-02-05T01:26:28.939Z,9.73
2019-02-05T01:28:51.206Z,8.20
2019-02-05T01:31:20.083Z,8.73
2019-02-05T01:33:48.871Z,9.50
2019-02-05T01:36:17.691Z,7.87
2019-02-05T01:38:46.468Z,9.60
2019-02-05T01:41:15.424Z,10.23
2019-02-05T01:43:44.498Z,7.20
2019-02-05T01:46:13.513Z,9.53
2019-02-05T01:48:42.405Z,8.80
2019-02-05T01:51:11.194Z,8.37
2019-02-05T01:53:40.251Z,10.50
2019-02-05T01:56:09.162Z,8.10
2019-02-05T01:58:37.967Z,9.53
2019-02-05T02:01:07.507Z,9.05
2019-02-05T02:03:36.556Z,10.10
2019-02-05T02:06:05.495Z,7.55
2019-02-05T02:08:34.374Z,9.23
2019-02-05T02:11:03.261Z,10.27
2019-02-05T02:13:32.143Z,9.67
2019-02-05T02:16:01.516Z,9.30
2019-02-05T02:18:30.307Z,8.93
2019-02-05T02:20:59.238Z,9.20
2019-02-05T02:23:28.248Z,11.23
2019-02-05T02:25:57.197Z,8.50
2019-02-05T02:28:26.010Z,7.73
2019-02-05T02:30:54.963Z,8.95
2019-02-05T02:33:23.789Z,8.67
2019-02-05T02:35:52.668Z,9.23
2019-02-05T02:38:21.571Z,11.77
2019-02-05T02:40:50.433Z,11.27
2019-02-05T02:43:19.232Z,10.20
2019-02-05T02:45:48.171Z,9.83
2019-02-05T02:48:16.971Z,8.80
2019-02-05T02:50:46.623Z,9.70
2019-02-05T02:53:15.509Z,10.30
2019-02-05T02:55:44.327Z,9.85
2019-02-05T02:58:13.736Z,10.40
2019-02-05T03:00:42.597Z,8.73
2019-02-05T03:03:11.687Z,10.00
2019-02-05T03:05:40.563Z,12.37
2019-02-05T03:08:09.497Z,10.57
2019-02-05T03:10:38.447Z,9.30
2019-02-05T03:13:07.594Z,10.47
2019-02-05T03:15:36.555Z,12.43
2019-02-05T03:18:05.539Z,11.80
2019-02-05T03:20:34.792Z,12.93
2019-02-05T03:23:03.736Z,12.20
2019-02-05T03:25:32.612Z,12.73
2019-02-05T03:28:01.563Z,11.97
2019-02-05T03:30:30.436Z,14.07
2019-02-05T03:32:59.303Z,11.45
2019-02-05T03:35:28.188Z,11.23
2019-02-05T03:37:57.428Z,11.68
2019-02-05T03:41:10.534Z,12.40
2019-02-05T03:43:40.567Z,10.60
2019-02-05T03:46:14.023Z,10.50
2019-02-05T03:48:45.214Z,11.00
2019-02-05T03:51:45.070Z,10.47
2019-02-05T03:54:30.033Z,8.60
2019-02-05T03:57:30.408Z,12.40
2019-02-05T04:00:25.325Z,11.03
2019-02-05T04:03:55.418Z,10.83
2019-02-05T04:07:14.533Z,11.90
2019-02-05T04:10:01.905Z,9.63
2019-02-05T04:13:02.719Z,10.90
2019-02-05T04:15:56.727Z,11.57
2019-02-05T04:19:13.567Z,11.67
2019-02-05T04:22:25.254Z,13.67
2019-02-05T04:25:19.584Z,12.87
2019-02-05T04:28:16.138Z,14.15
2019-02-05T04:31:09.412Z,11.47
2019-02-05T04:34:03.603Z,12.20
2019-02-05T04:37:16.787Z,12.50
2019-02-05T04:40:18.089Z,11.40
2019-02-05T04:43:16.380Z,11.50
2019-02-05T04:46:06.218Z,10.80
2019-02-05T04:49:18.483Z,12.80
2019-02-05T04:52:00.119Z,12.57
2019-02-05T04:55:13.413Z,11.60
2019-02-05T04:58:10.537Z,11.87
2019-02-05T05:01:30.042Z,11.37
2019-02-05T05:04:42.870Z,13.07
2019-02-05T05:07:51.902Z,11.53
2019-02-05T05:10:20.773Z,13.63
2019-02-05T05:12:50.552Z,12.05
2019-02-05T05:15:20.098Z,11.30
2019-02-05T05:17:49.920Z,10.75
2019-02-05T05:20:18.757Z,12.03
2019-02-05T05:22:47.934Z,11.45
2019-02-05T05:25:18.687Z,10.30
2019-02-05T05:27:47.633Z,14.13
2019-02-05T05:30:18.694Z,13.80
2019-02-05T05:32:47.643Z,12.53
2019-02-05T05:35:16.588Z,12.50
2019-02-05T05:37:45.405Z,12.20
2019-02-05T05:40:14.461Z,13.00
2019-02-05T05:42:43.258Z,13.25
2019-02-05T05:45:14.570Z,14.20
2019-02-05T05:47:43.465Z,14.30
2019-02-05T05:50:14.520Z,13.53
2019-02-05T05:52:43.485Z,13.37
2019-02-05T05:55:13.167Z,13.05
2019-02-05T05:57:41.976Z,15.33
2019-02-05T06:00:14.429Z,17.00
2019-02-05T06:02:43.237Z,12.27
2019-02-05T06:05:13.664Z,15.87
2019-02-05T06:07:42.531Z,16.57
2019-02-05T06:10:11.891Z,13.07
2019-02-05T06:12:40.846Z,15.50
2019-02-05T06:15:11.040Z,14.30
2019-02-05T06:17:40.177Z,13.43
2019-02-05T06:20:12.675Z,14.00
2019-02-05T06:22:41.592Z,12.70
2019-02-05T06:25:11.006Z,12.63
2019-02-05T06:27:40.145Z,11.97
2019-02-05T06:30:10.379Z,14.50
2019-02-05T06:32:39.362Z,13.77
2019-02-05T06:35:08.438Z,13.90
2019-02-05T06:37:37.390Z,15.90
2019-02-05T06:40:07.205Z,15.07
2019-02-05T06:42:36.151Z,15.63
2019-02-05T06:45:05.948Z,16.50
2019-02-05T06:47:34.762Z,13.62
2019-02-05T06:50:04.586Z,12.40
2019-02-05T06:52:33.381Z,15.27
2019-02-05T06:55:02.270Z,16.20
2019-02-05T06:57:31.633Z,15.77
2019-02-05T07:00:00.442Z,15.70
2019-02-05T07:02:29.315Z,14.45
2019-02-05T07:04:58.187Z,13.07
2019-02-05T07:07:27.064Z,13.20
2019-02-05T07:09:55.965Z,15.53
2019-02-05T07:12:24.782Z,15.30
2019-02-05T07:14:53.678Z,15.40
2019-02-05T07:17:22.691Z,15.55
2019-02-05T07:19:51.493Z,15.70
2019-02-05T07:22:20.378Z,17.93
2019-02-05T07:24:49.164Z,14.57
2019-02-05T07:27:18.431Z,17.43
2019-02-05T07:29:47.225Z,14.70
2019-02-05T07:32:16.106Z,16.07
2019-02-05T07:34:44.977Z,15.60
2019-02-05T07:37:13.766Z,16.57
2019-02-05T07:39:42.567Z,16.33
2019-02-05T07:42:11.356Z,14.67
2019-02-05T07:44:40.227Z,20.13
2019-02-05T07:47:09.106Z,14.27
2019-02-05T07:49:38.265Z,15.83
2019-02-05T07:52:07.320Z,14.93
2019-02-05T07:54:36.207Z,14.63
2019-02-05T07:57:05.097Z,14.00
2019-02-05T07:59:33.982Z,13.50
2019-02-05T08:02:02.845Z,13.98
2019-02-05T08:04:31.752Z,12.17
2019-02-05T08:07:01.050Z,16.53
2019-02-05T08:09:29.830Z,14.33
2019-02-05T08:11:58.694Z,14.75
2019-02-05T08:14:27.738Z,15.30
2019-02-05T08:16:56.573Z,15.50
2019-02-05T08:19:25.386Z,12.83
2019-02-05T08:21:54.655Z,11.22
2019-02-05T08:24:23.628Z,13.83
2019-02-05T08:26:52.731Z,16.27
2019-02-05T08:29:21.999Z,16.20
2019-02-05T08:31:50.785Z,11.70
2019-02-05T08:34:19.740Z,14.28
2019-02-05T08:36:48.594Z,13.63
2019-02-05T08:39:18.028Z,14.30
2019-02-05T08:41:46.826Z,14.18
2019-02-05T08:44:16.082Z,12.58
2019-02-05T08:46:44.859Z,15.00
2019-02-05T08:49:13.727Z,10.80
2019-02-05T08:51:42.523Z,13.50
2019-02-05T08:54:11.323Z,10.77
2019-02-05T08:56:40.383Z,13.40
2019-02-05T08:59:09.206Z,15.07
2019-02-05T09:01:38.390Z,17.53
2019-02-05T09:04:07.240Z,19.90
2019-02-05T09:06:36.128Z,15.00
2019-02-05T09:09:08.562Z,17.93
2019-02-05T09:11:37.432Z,15.40
2019-02-05T09:14:11.153Z,15.80
2019-02-05T09:16:37.409Z,16.23
2019-02-05T09:19:06.341Z,14.17
2019-02-05T09:21:35.210Z,14.80
2019-02-05T09:24:04.188Z,14.30
2019-02-05T09:26:33.196Z,19.23
2019-02-05T09:29:02.286Z,17.50
2019-02-05T09:31:31.086Z,17.57
2019-02-05T09:34:00.316Z,15.43
2019-02-05T09:36:29.106Z,14.30
2019-02-05T09:38:57.891Z,17.90
2019-02-05T09:41:26.888Z,15.83
2019-02-05T09:43:55.680Z,13.83
2019-02-05T09:46:24.584Z,14.83
2019-02-05T09:48:53.387Z,16.33
2019-02-05T09:51:22.676Z,16.53
2019-02-05T09:53:51.535Z,18.27
2019-02-05T09:56:20.495Z,17.63
2019-02-05T09:58:49.274Z,18.60
2019-02-05T10:01:18.329Z,14.67
2019-02-05T10:03:47.237Z,13.73
2019-02-05T10:06:16.128Z,12.43
2019-02-05T10:08:45.497Z,12.37
2019-02-05T10:11:14.580Z,13.10
2019-02-05T10:13:43.424Z,15.07
2019-02-05T10:16:12.407Z,13.87
2019-02-05T10:18:41.194Z,10.43
2019-02-05T10:21:10.185Z,12.07
2019-02-05T10:23:39.044Z,10.98
2019-02-05T10:26:08.401Z,11.45
2019-02-05T10:28:37.198Z,12.00
2019-02-05T10:31:06.178Z,12.87
2019-02-05T10:33:35.081Z,10.63
2019-02-05T10:36:04.058Z,10.43
2019-02-05T10:38:32.906Z,11.53
2019-02-05T10:41:02.004Z,8.90
2019-02-05T10:43:30.998Z,9.20
2019-02-05T10:45:59.817Z,11.15
2019-02-05T10:48:29.183Z,10.30
2019-02-05T10:50:57.962Z,11.30
2019-02-05T10:53:26.873Z,11.80
2019-02-05T10:55:55.703Z,14.50
2019-02-05T10:58:24.588Z,14.87
2019-02-05T11:00:53.523Z,13.00
2019-02-05T11:03:22.451Z,13.53
2019-02-05T11:05:51.510Z,12.93
2019-02-05T11:08:20.440Z,12.03
2019-02-05T11:10:49.253Z,13.63
2019-02-05T11:13:18.906Z,13.77
2019-02-05T11:15:48.163Z,11.95
2019-02-05T11:18:17.130Z,11.50
2019-02-05T11:20:45.920Z,12.70
2019-02-05T11:23:14.888Z,10.20
2019-02-05T11:25:43.816Z,13.65
2019-02-05T11:28:12.795Z,11.90
2019-02-05T11:30:45.648Z,11.33
2019-02-05T11:33:14.893Z,10.43
2019-02-05T11:35:43.815Z,11.70
2019-02-05T11:38:13.142Z,9.90
2019-02-05T11:40:42.383Z,8.50
2019-02-05T11:43:11.823Z,11.03
2019-02-05T11:45:40.763Z,9.13
2019-02-05T11:48:13.970Z,9.00
2019-02-05T11:50:43.126Z,9.60
2019-02-05T11:53:12.353Z,7.30
2019-02-05T11:55:41.303Z,7.20
2019-02-05T11:58:10.399Z,7.70
2019-02-05T12:00:45.319Z,8.60
2019-02-05T12:03:14.483Z,6.33
2019-02-05T12:05:43.410Z,8.10
2019-02-05T12:08:12.461Z,9.47
2019-02-05T12:10:41.464Z,7.70
2019-02-05T12:13:10.485Z,7.80
2019-02-05T12:15:39.276Z,7.43
2019-02-05T12:18:08.240Z,7.07
2019-02-05T12:20:37.093Z,8.97
2019-02-05T12:23:06.807Z,6.90
2019-02-05T12:25:35.694Z,9.20
2019-02-05T12:28:04.992Z,8.00
2019-02-05T12:30:44.530Z,8.23
2019-02-05T12:33:06.399Z,7.00
2019-02-05T12:35:35.412Z,8.00
2019-02-05T12:38:05.048Z,7.93
2019-02-05T12:40:34.183Z,6.23
2019-02-05T12:43:03.699Z,6.50
2019-02-05T12:45:33.864Z,7.83
2019-02-05T12:48:03.853Z,7.03
2019-02-05T12:50:34.913Z,7.20
2019-02-05T12:53:04.326Z,7.90
2019-02-05T12:55:34.036Z,6.15
2019-02-05T12:58:02.900Z,7.55
2019-02-05T13:00:37.076Z,8.00
2019-02-05T13:03:06.915Z,8.93
2019-02-05T13:05:36.037Z,6.47
2019-02-05T13:08:05.773Z,7.20
2019-02-05T13:10:40.361Z,7.27
2019-02-05T13:13:09.756Z,6.47
2019-02-05T13:15:38.700Z,7.20
2019-02-05T13:18:08.313Z,6.35
2019-02-05T13:20:38.034Z,6.93
2019-02-05T13:23:07.748Z,8.93
2019-02-05T13:25:36.675Z,8.53
2019-02-05T13:28:07.561Z,8.00
2019-02-05T13:30:36.822Z,8.17
2019-02-05T13:33:06.534Z,10.10
2019-02-05T13:35:35.836Z,8.40
2019-02-05T13:38:06.417Z,10.00
2019-02-05T13:40:35.997Z,9.18
2019-02-05T13:43:06.397Z,7.97
2019-02-05T13:45:36.672Z,7.50
2019-02-05T13:48:07.022Z,7.55
2019-02-05T13:50:36.427Z,7.08
2019-02-05T13:53:07.001Z,8.53
2019-02-05T13:55:41.714Z,6.33
2019-02-05T13:58:11.204Z,9.27
2019-02-05T14:00:42.786Z,9.00
2019-02-05T14:03:11.741Z,9.57
2019-02-05T14:05:40.675Z,9.65
2019-02-05T14:08:09.612Z,11.53
2019-02-05T14:10:38.898Z,9.67
2019-02-05T14:13:08.101Z,10.10
2019-02-05T14:15:38.899Z,9.88
2019-02-05T14:18:08.907Z,9.78
2019-02-05T14:20:37.956Z,8.73
2019-02-05T14:23:07.540Z,7.70
2019-02-05T14:25:36.575Z,8.28
2019-02-05T14:28:05.745Z,7.67
2019-02-05T14:30:37.314Z,8.40
2019-02-05T14:33:06.620Z,8.50
2019-02-05T14:35:35.564Z,6.10
2019-02-05T14:38:05.652Z,7.13
2019-02-05T14:40:34.520Z,7.97
2019-02-05T14:43:03.390Z,6.80
2019-02-05T14:45:32.359Z,8.58
2019-02-05T14:48:01.492Z,7.80
2019-02-05T14:50:31.628Z,7.07
2019-02-05T14:53:00.745Z,9.10
2019-02-05T14:55:29.696Z,8.25
2019-02-05T14:57:58.731Z,8.50
2019-02-05T15:00:32.461Z,7.23
2019-02-05T15:03:02.405Z,8.80
2019-02-05T15:05:31.700Z,8.60
2019-02-05T15:08:00.561Z,6.83
2019-02-05T15:10:29.527Z,7.08
2019-02-05T15:12:58.799Z,6.13
2019-02-05T15:15:27.871Z,8.30
2019-02-05T15:17:56.804Z,7.90
2019-02-05T15:20:36.790Z,7.90
2019-02-05T15:23:07.006Z,7.43
2019-02-05T15:25:36.155Z,7.57
2019-02-05T15:28:05.888Z,8.45
2019-02-05T15:30:36.806Z,8.67
2019-02-05T15:33:41.539Z,8.23
2019-02-05T15:36:31.372Z,7.27
2019-02-05T15:38:59.782Z,7.00
2019-02-05T15:41:28.720Z,8.10
2019-02-05T15:44:00.514Z,7.70
2019-02-05T15:46:28.224Z,9.47
2019-02-05T15:48:57.110Z,10.00
2019-02-05T15:51:26.002Z,9.73
2019-02-05T15:53:54.921Z,8.67
2019-02-05T15:56:24.079Z,8.30
2019-02-05T15:58:52.861Z,8.40
2019-02-05T16:01:21.794Z,8.50
2019-02-05T16:03:50.673Z,9.97
2019-02-05T16:06:19.752Z,8.63
2019-02-05T16:08:48.538Z,8.50
2019-02-05T16:11:17.492Z,9.00
2019-02-05T16:13:46.428Z,9.47
2019-02-05T16:16:15.426Z,10.10
2019-02-05T16:18:44.468Z,10.10
2019-02-05T16:21:13.401Z,9.00
2019-02-05T16:23:42.992Z,9.70
2019-02-05T16:26:11.806Z,11.63
2019-02-05T16:28:40.690Z,9.50
2019-02-05T16:31:09.471Z,9.80
2019-02-05T16:33:38.754Z,8.67
2019-02-05T16:36:07.688Z,8.60
2019-02-05T16:38:36.680Z,10.40
2019-02-05T16:41:05.926Z,10.97
2019-02-05T16:43:34.728Z,10.15
2019-02-05T16:46:03.803Z,9.50
2019-02-05T16:48:32.865Z,12.63
2019-02-05T16:51:01.792Z,9.70
2019-02-05T16:53:30.660Z,10.10
2019-02-05T16:55:59.617Z,8.87
2019-02-05T16:58:28.485Z,9.05
2019-02-05T17:00:57.289Z,9.53
2019-02-05T17:03:26.144Z,9.50
2019-02-05T17:05:55.451Z,9.40
2019-02-05T17:08:24.334Z,10.57
2019-02-05T17:10:53.114Z,6.67
2019-02-05T17:13:22.089Z,9.10
2019-02-05T17:15:51.069Z,10.30
2019-02-05T17:18:23.677Z,10.32
2019-02-05T17:20:50.571Z,9.18
2019-02-05T17:23:19.631Z,8.90
2019-02-05T17:25:49.038Z,9.90
2019-02-05T17:28:17.993Z,11.57
2019-02-05T17:30:46.835Z,14.47
2019-02-05T17:33:16.039Z,19.17
2019-02-05T17:35:46.255Z,17.92
2019-02-05T17:38:16.124Z,18.30
2019-02-05T17:40:45.021Z,16.05
2019-02-05T17:43:13.913Z,18.03
2019-02-05T17:45:43.599Z,16.13
2019-02-05T17:48:14.852Z,17.73
2019-02-05T17:50:44.132Z,14.10
2019-02-05T17:53:12.974Z,9.53
2019-02-05T17:55:41.921Z,9.07
2019-02-05T17:58:11.073Z,9.60
2019-02-05T18:00:47.283Z,10.20
2019-02-05T18:03:16.745Z,11.30
2019-02-05T18:05:46.632Z,11.96
2019-02-05T18:08:15.503Z,10.70
2019-02-05T18:10:44.302Z,11.60
2019-02-05T18:13:13.160Z,12.37
2019-02-05T18:15:42.130Z,8.60
2019-02-05T18:18:11.071Z,10.77
2019-02-05T18:20:40.024Z,13.53
2019-02-05T18:23:08.958Z,11.28
2019-02-05T18:25:37.924Z,13.72
2019-02-05T18:28:07.077Z,15.47
2019-02-05T18:30:36.086Z,21.73
2019-02-05T18:33:05.754Z,20.57
2019-02-05T18:35:34.969Z,20.60
2019-02-05T18:38:04.379Z,18.20
2019-02-05T18:40:33.449Z,17.75
2019-02-05T18:43:02.315Z,15.00
2019-02-05T18:45:31.202Z,17.10
2019-02-05T18:48:00.067Z,15.60
2019-02-05T18:50:29.751Z,15.90
2019-02-05T18:52:59.406Z,11.35
2019-02-05T18:55:29.071Z,12.67
2019-02-05T18:58:08.485Z,13.77
2019-02-05T19:00:30.784Z,13.03
2019-02-05T19:02:59.813Z,14.53
2019-02-05T19:05:29.245Z,21.43
2019-02-05T19:07:58.200Z,14.03
2019-02-05T19:10:27.855Z,15.00
2019-02-05T19:12:57.020Z,17.33
2019-02-05T19:15:30.644Z,17.10
2019-02-05T19:17:59.513Z,14.03
2019-02-05T19:20:30.005Z,19.20
2019-02-05T19:22:59.009Z,21.27
2019-02-05T19:25:36.898Z,20.73
2019-02-05T19:28:06.329Z,18.10
2019-02-05T19:30:36.002Z,14.60
2019-02-05T19:33:05.066Z,12.40
2019-02-05T19:35:33.970Z,11.60
2019-02-05T19:38:02.845Z,11.33
2019-02-05T19:40:31.697Z,12.30
2019-02-05T19:43:00.563Z,10.10
2019-02-05T19:45:47.496Z,15.50
2019-02-05T19:48:24.773Z,10.17
2019-02-05T19:50:53.966Z,10.90
2019-02-05T19:53:25.878Z,11.88
2019-02-05T19:55:53.364Z,15.18
2019-02-05T19:58:22.274Z,14.17
2019-02-05T20:00:51.495Z,14.97
2019-02-05T20:03:20.362Z,14.03
2019-02-05T20:05:49.423Z,14.83
2019-02-05T20:08:18.284Z,17.30
2019-02-05T20:10:47.077Z,14.87
2019-02-05T20:13:16.001Z,15.20
2019-02-05T20:15:44.860Z,15.30
2019-02-05T20:18:14.081Z,13.87
2019-02-05T20:20:43.027Z,11.17
2019-02-05T20:23:11.823Z,11.60
2019-02-05T20:25:40.879Z,12.00
2019-02-05T20:28:09.721Z,10.30
2019-02-05T20:30:38.648Z,12.37
2019-02-05T20:33:07.532Z,12.27
2019-02-05T20:35:36.697Z,10.40
2019-02-05T20:38:05.967Z,11.23
2019-02-05T20:40:34.913Z,12.57
2019-02-05T20:43:03.781Z,12.53
2019-02-05T20:45:32.685Z,12.63
2019-02-05T20:48:01.618Z,15.20
2019-02-05T20:50:30.548Z,11.63
2019-02-05T20:52:59.680Z,11.73
2019-02-05T20:55:28.533Z,14.87
2019-02-05T20:57:57.425Z,12.93
2019-02-05T21:00:26.404Z,10.60
2019-02-05T21:02:55.376Z,9.97
2019-02-05T21:05:24.324Z,10.57
2019-02-05T21:07:53.263Z,9.80
2019-02-05T21:10:23.267Z,11.37
2019-02-05T21:12:52.088Z,18.93
2019-02-05T21:15:22.146Z,21.30
2019-02-05T21:17:51.521Z,18.20
2019-02-05T21:20:29.228Z,15.38
2019-02-05T21:22:52.434Z,13.23
2019-02-05T21:25:22.005Z,11.60
2019-02-05T21:27:51.460Z,11.48
2019-02-05T21:30:21.640Z,10.80
2019-02-05T21:32:52.094Z,10.38
2019-02-05T21:35:21.817Z,10.53
2019-02-05T21:37:51.593Z,10.43
2019-02-05T21:40:22.251Z,14.45
2019-02-05T21:42:52.016Z,12.00
2019-02-05T21:45:23.047Z,12.73
2019-02-05T21:47:51.925Z,13.20
2019-02-05T21:50:21.393Z,12.95
2019-02-05T21:52:50.452Z,11.37
2019-02-05T21:55:19.788Z,12.10
2019-02-05T21:57:48.943Z,12.87
2019-02-05T22:02:38.384Z,13.32
2019-02-05T22:05:09.232Z,12.60
2019-02-05T22:07:38.231Z,14.07
2019-02-05T22:10:08.422Z,12.80
2019-02-05T22:12:37.478Z,13.88
2019-02-05T22:15:08.386Z,13.80
2019-02-05T22:17:37.295Z,13.63
2019-02-05T22:20:08.674Z,16.70
2019-02-05T22:22:37.727Z,13.40
2019-02-05T22:25:10.070Z,14.10
2019-02-05T22:27:38.952Z,15.20
2019-02-05T22:30:13.767Z,16.15
2019-02-05T22:32:42.841Z,15.25
2019-02-05T22:35:12.053Z,15.07
2019-02-05T22:37:41.183Z,17.07
2019-02-05T22:40:10.264Z,16.12
2019-02-05T22:42:39.152Z,16.97
2019-02-05T22:45:09.843Z,13.33
2019-02-05T22:47:38.711Z,16.10
2019-02-05T22:50:14.486Z,16.00
2019-02-05T22:52:43.449Z,14.55
2019-02-05T22:55:12.641Z,14.38
2019-02-05T22:57:41.588Z,14.85
2019-02-05T23:00:50.057Z,13.72
2019-02-05T23:03:23.247Z,12.00
2019-02-05T23:06:36.956Z,10.37
2019-02-05T23:09:18.650Z,12.23
2019-02-05T23:12:16.251Z,12.73
2019-02-05T23:14:47.293Z,11.53
2019-02-05T23:17:16.208Z,13.90
2019-02-05T23:19:45.478Z,14.05
2019-02-05T23:22:14.347Z,14.77
2019-02-05T23:24:43.219Z,14.90
2019-02-05T23:27:12.091Z,11.70
2019-02-05T23:29:41.236Z,13.00
2019-02-05T23:32:10.160Z,13.47
2019-02-05T23:34:39.111Z,15.27
2019-02-05T23:37:07.936Z,14.10
2019-02-05T23:39:37.479Z,15.50
2019-02-05T23:42:06.416Z,15.97
2019-02-05T23:44:35.216Z,16.00
2019-02-05T23:47:04.377Z,15.10
2019-02-05T23:49:33.273Z,13.97
2019-02-05T23:52:02.148Z,16.10
2019-02-05T23:54:31.040Z,16.60
2019-02-05T23:56:59.921Z,15.28
2019-02-05T23:59:28.815Z,17.63
